Time;durP1;ratioP1;P1;durP2;ratioP2;P2;SDS_P1;SDS_P2;PMS_P1;PMS_P2;Temp;Humidity;BMP_temperature;BMP_pressure;BME280_temperature;BME280_humidity;BME280_pressure;Samples;Min_cycle;Max_cycle;Signal;HPM_P1;HPM_P2
2022/07/06 00:01:18;;;;;;;;;;;;;;;22.92;56.46;99780.44;4313897;32;20055;-83
2022/07/06 00:03:45;;;;;;;;;;;;;;;22.68;57.31;99775.09;4335983;32;20314;-83
2022/07/06 00:06:20;;;;;;;;;;;;;;;22.72;57.20;99776.72;4332063;32;20365;-83
2022/07/06 00:08:47;;;;;;;;;;;;;;;22.90;56.48;99782.25;4327060;33;19988;-83
2022/07/06 00:11:14;;;;;;;;;;;;;;;23.05;56.04;99779.09;4333174;32;19995;-83
2022/07/06 00:13:42;;;;;;;;;;;;;;;22.98;56.41;99772.34;4355346;32;19987;-82
2022/07/06 00:16:09;;;;;;;;;;;;;;;22.97;56.23;99779.41;4336506;32;19974;-83
2022/07/06 00:18:35;;;;;;;;;;;;;;;22.87;56.77;99779.72;4356728;32;20297;-83
2022/07/06 00:21:02;;;;;;;;;;;;;;;22.86;56.32;99778.00;4356386;32;19975;-83
2022/07/06 00:23:29;;;;;;;;;;;;;;;22.94;56.17;99770.69;4355945;32;19994;-83
2022/07/06 00:25:56;;;;;;;;;;;;;;;22.86;56.84;99770.94;4347848;32;20013;-83
2022/07/06 00:28:23;;;;;;;;;;;;;;;22.83;56.72;99775.47;4356160;32;19991;-83
2022/07/06 00:30:51;;;;;;;;;;;;;;;22.83;56.52;99767.56;4356206;32;20059;-83
2022/07/06 00:33:18;;;;;;;;;;;;;;;22.64;57.41;99769.97;4333082;32;20397;-84
2022/07/06 00:35:46;;;;;;;;;;;;;;;22.63;57.39;99766.47;4283410;33;20311;-83
2022/07/06 00:38:13;;;;;;;;;;;;;;;22.65;57.39;99762.00;4281681;33;19992;-83
2022/07/06 00:40:40;;;;;;;;;;;;;;;22.66;57.18;99769.00;4282828;33;20003;-84
2022/07/06 00:43:06;;;;;;;;;;;;;;;22.59;57.61;99772.78;4282779;33;20003;-84
2022/07/06 00:45:34;;;;;;;;;;;;;;;22.68;57.69;99777.72;4282520;33;19981;-83
2022/07/06 00:48:01;;;;;;;;;;;;;;;22.82;57.01;99765.84;4281493;33;20325;-85
2022/07/06 00:50:28;;;;;;;;;;;;;;;22.66;57.82;99766.38;4286169;33;20041;-84
2022/07/06 00:52:56;;;;;;;;;;;;;;;22.58;57.72;99768.41;4283355;33;19989;-84
2022/07/06 00:55:24;;;;;;;;;;;;;;;22.84;56.42;99766.63;4283197;33;19985;-83
2022/07/06 00:57:51;;;;;;;;;;;;;;;22.88;56.68;99757.72;4283171;33;19999;-84
2022/07/06 01:00:20;;;;;;;;;;;;;;;22.80;56.78;99750.06;4283367;33;19985;-84
2022/07/06 01:02:47;;;;;;;;;;;;;;;22.87;56.64;99742.78;4286627;33;19999;-84
2022/07/06 01:05:15;;;;;;;;;;;;;;;22.86;56.93;99746.34;4266161;33;20687;-83
2022/07/06 01:07:43;;;;;;;;;;;;;;;22.86;56.43;99749.84;4275511;33;19989;-84
2022/07/06 01:10:12;;;;;;;;;;;;;;;23.02;55.64;99752.81;4271395;33;20044;-84
2022/07/06 01:12:40;;;;;;;;;;;;;;;23.11;55.31;99757.75;4296046;33;20438;-83
2022/07/06 01:15:09;;;;;;;;;;;;;;;22.95;56.00;99752.19;4269225;33;19989;-82
2022/07/06 01:17:36;;;;;;;;;;;;;;;22.61;57.33;99749.84;4269642;33;20068;-82
2022/07/06 01:20:09;;;;;;;;;;;;;;;23.03;56.05;99754.53;4298783;33;20008;-82
2022/07/06 01:22:36;;;;;;;;;;;;;;;23.23;55.09;99764.37;4279706;33;20003;-83
2022/07/06 01:25:03;;;;;;;;;;;;;;;23.09;55.43;99762.22;4264458;33;20036;-81
2022/07/06 01:27:30;;;;;;;;;;;;;;;23.17;55.47;99768.09;4277058;33;20052;-80
2022/07/06 01:29:59;;;;;;;;;;;;;;;23.34;54.18;99763.97;4339355;32;20385;-81
2022/07/06 01:32:26;;;;;;;;;;;;;;;23.07;55.40;99761.44;4355014;32;19987;-80
2022/07/06 01:34:53;;;;;;;;;;;;;;;23.26;54.74;99766.91;4355544;32;19980;-80
2022/07/06 01:37:20;;;;;;;;;;;;;;;23.18;55.03;99775.09;4354231;32;19991;-81
2022/07/06 01:39:47;;;;;;;;;;;;;;;23.10;55.07;99769.25;4355949;32;20403;-80
2022/07/06 01:42:13;;;;;;;;;;;;;;;23.09;55.08;99764.87;4350495;32;20331;-80
2022/07/06 01:44:40;;;;;;;;;;;;;;;23.11;55.07;99768.31;4281316;33;20414;-80
2022/07/06 01:47:08;;;;;;;;;;;;;;;23.10;55.18;99760.44;4281762;33;20023;-80
2022/07/06 01:49:35;;;;;;;;;;;;;;;23.25;54.56;99764.31;4281443;33;20710;-81
2022/07/06 01:52:02;;;;;;;;;;;;;;;23.12;55.30;99767.41;4283765;32;20351;-81
2022/07/06 01:54:29;;;;;;;;;;;;;;;22.92;55.49;99751.41;4354596;32;19975;-81
2022/07/06 01:56:56;;;;;;;;;;;;;;;22.63;56.54;99761.22;4360968;32;20007;-81
2022/07/06 01:59:25;;;;;;;;;;;;;;;22.63;56.64;99766.47;4354694;32;19983;-81
2022/07/06 02:01:53;;;;;;;;;;;;;;;22.57;56.60;99771.97;4352702;32;20067;-80
2022/07/06 02:04:21;;;;;;;;;;;;;;;22.75;56.17;99787.16;4341545;32;20046;-80
2022/07/06 02:06:49;;;;;;;;;;;;;;;22.60;56.83;99787.69;4340159;32;19988;-80
2022/07/06 02:09:16;;;;;;;;;;;;;;;22.49;57.03;99785.44;4320630;32;19992;-80
2022/07/06 02:11:53;;;;;;;;;;;;;;;22.60;56.62;99781.56;4291744;33;19980;-81
2022/07/06 02:14:20;;;;;;;;;;;;;;;22.45;57.25;99783.78;4270411;33;19980;-80
2022/07/06 02:16:47;;;;;;;;;;;;;;;22.52;57.07;99795.00;4270028;33;20352;-81
2022/07/06 02:19:16;;;;;;;;;;;;;;;22.55;56.73;99792.25;4284421;33;19981;-80
2022/07/06 02:21:44;;;;;;;;;;;;;;;22.42;57.30;99797.06;4282959;33;20011;-81
2022/07/06 02:24:11;;;;;;;;;;;;;;;22.53;56.77;99791.47;4286138;33;19993;-81
2022/07/06 02:26:39;;;;;;;;;;;;;;;22.43;57.34;99805.84;4270820;33;20000;-81
2022/07/06 02:29:06;;;;;;;;;;;;;;;22.54;56.91;99793.19;4295649;33;20312;-81
2022/07/06 02:31:33;;;;;;;;;;;;;;;22.58;56.91;99794.78;4300114;32;20007;-81
2022/07/06 02:34:00;;;;;;;;;;;;;;;22.60;56.75;99778.94;4320633;32;20001;-82
2022/07/06 02:36:27;;;;;;;;;;;;;;;22.72;56.12;99775.88;4341303;32;20753;-81
2022/07/06 02:38:54;;;;;;;;;;;;;;;22.51;56.96;99772.19;4354060;32;20021;-82
2022/07/06 02:41:21;;;;;;;;;;;;;;;22.79;55.77;99776.50;4366939;32;19997;-82
2022/07/06 02:43:49;;;;;;;;;;;;;;;22.34;57.55;99785.09;4354951;32;19980;-82
2022/07/06 02:46:16;;;;;;;;;;;;;;;22.20;58.17;99794.28;4354048;32;20030;-83
2022/07/06 02:48:44;;;;;;;;;;;;;;;22.39;57.25;99794.53;4355715;32;20442;-83
2022/07/06 02:51:11;;;;;;;;;;;;;;;22.29;57.57;99795.75;4349306;32;20276;-82
2022/07/06 02:53:38;;;;;;;;;;;;;;;22.26;57.95;99796.72;4353080;32;19983;-82
2022/07/06 02:56:06;;;;;;;;;;;;;;;22.34;57.66;99795.63;4355821;32;19990;-83
2022/07/06 02:58:33;;;;;;;;;;;;;;;22.01;58.92;99814.19;4355543;32;19999;-82
2022/07/06 03:01:01;;;;;;;;;;;;;;;22.34;57.39;99811.47;4354181;32;19983;-83
2022/07/06 03:03:28;;;;;;;;;;;;;;;22.32;57.71;99819.41;4355053;32;20050;-83
2022/07/06 03:05:55;;;;;;;;;;;;;;;22.41;57.51;99823.53;4355524;32;20039;-83
2022/07/06 03:08:23;;;;;;;;;;;;;;;22.50;57.62;99833.78;4365957;32;19991;-83
2022/07/06 03:10:51;;;;;;;;;;;;;;;22.66;56.58;99834.97;4355189;32;19987;-81
2022/07/06 03:13:18;;;;;;;;;;;;;;;22.78;55.86;99827.56;4355430;32;20021;-82
2022/07/06 03:15:45;;;;;;;;;;;;;;;22.63;56.12;99831.59;4354768;32;20035;-83
2022/07/06 03:18:13;;;;;;;;;;;;;;;22.33;57.03;99830.81;4355474;32;20344;-82
2022/07/06 03:20:40;;;;;;;;;;;;;;;22.27;57.43;99830.12;4354760;32;19988;-82
2022/07/06 03:23:08;;;;;;;;;;;;;;;22.31;57.06;99843.19;4353627;32;19975;-82
2022/07/06 03:25:35;;;;;;;;;;;;;;;22.06;57.78;99849.19;4354234;32;20017;-82
2022/07/06 03:28:02;;;;;;;;;;;;;;;22.38;56.93;99850.00;4312524;32;20044;-82
2022/07/06 03:30:29;;;;;;;;;;;;;;;22.24;57.36;99853.09;4295703;33;19976;-82
2022/07/06 03:32:57;;;;;;;;;;;;;;;22.39;56.97;99857.00;4296150;33;19973;-82
2022/07/06 03:35:24;;;;;;;;;;;;;;;22.42;56.47;99851.63;4295521;33;20060;-82
2022/07/06 03:37:54;;;;;;;;;;;;;;;22.11;57.65;99846.41;4296291;33;20044;-83
2022/07/06 03:40:22;;;;;;;;;;;;;;;22.24;57.56;99848.66;4307106;33;20046;-82
2022/07/06 03:42:49;;;;;;;;;;;;;;;22.29;57.13;99846.72;4286559;32;20809;-82
2022/07/06 03:45:16;;;;;;;;;;;;;;;22.35;56.59;99839.53;4350519;32;20023;-82
2022/07/06 03:47:46;;;;;;;;;;;;;;;22.03;57.61;99844.88;4341825;32;19998;-82
2022/07/06 03:50:13;;;;;;;;;;;;;;;22.13;57.66;99842.81;4340220;33;20030;-82
2022/07/06 03:52:41;;;;;;;;;;;;;;;22.32;56.72;99839.63;4342421;32;20605;-82
2022/07/06 03:55:10;;;;;;;;;;;;;;;22.47;56.26;99839.16;4342278;32;19996;-81
2022/07/06 03:57:39;;;;;;;;;;;;;;;22.42;56.23;99841.91;4341000;32;20471;-83
2022/07/06 04:00:08;;;;;;;;;;;;;;;22.13;57.30;99840.19;4340303;33;20003;-82
2022/07/06 04:02:40;;;;;;;;;;;;;;;21.95;58.78;99840.75;4292902;32;19981;-82
2022/07/06 04:05:08;;;;;;;;;;;;;;;22.03;57.99;99833.47;4283479;33;20589;-82
2022/07/06 04:07:35;;;;;;;;;;;;;;;22.20;57.51;99825.91;4278840;33;20073;-82
2022/07/06 04:10:12;;;;;;;;;;;;;;;22.00;57.79;99830.94;4273044;33;19997;-82
2022/07/06 04:12:41;;;;;;;;;;;;;;;21.88;58.30;99823.41;4269527;33;19983;-81
2022/07/06 04:15:08;;;;;;;;;;;;;;;22.00;57.81;99828.31;4267208;33;19985;-82
2022/07/06 04:17:59;;;;;;;;;;;;;;;22.08;57.57;99834.22;4269604;33;19996;-81
2022/07/06 04:20:32;;;;;;;;;;;;;;;21.69;59.31;99842.38;4285097;33;20019;-82
2022/07/06 04:23:00;;;;;;;;;;;;;;;21.94;57.99;99839.03;4278030;33;20025;-82
2022/07/06 04:25:27;;;;;;;;;;;;;;;22.01;57.43;99835.28;4283730;33;20011;-81
2022/07/06 04:27:55;;;;;;;;;;;;;;;21.82;58.49;99833.25;4283630;33;20346;-83
2022/07/06 04:30:22;;;;;;;;;;;;;;;21.89;58.22;99828.63;4283390;33;20470;-82
2022/07/06 04:32:49;;;;;;;;;;;;;;;22.03;58.20;99828.22;4285955;33;19985;-84
2022/07/06 04:35:16;;;;;;;;;;;;;;;21.85;58.71;99823.50;4290684;33;19985;-79
2022/07/06 04:37:45;;;;;;;;;;;;;;;21.96;58.24;99821.41;4283852;33;20374;-82
2022/07/06 04:40:13;;;;;;;;;;;;;;;22.12;57.96;99817.37;4291717;33;20381;-81
2022/07/06 04:42:47;;;;;;;;;;;;;;;21.92;58.51;99827.66;4281127;33;19981;-81
2022/07/06 04:45:14;;;;;;;;;;;;;;;22.04;58.30;99829.91;4276042;33;19992;-82
2022/07/06 04:47:43;;;;;;;;;;;;;;;22.15;57.56;99827.81;4286226;33;19977;-83
2022/07/06 04:50:11;;;;;;;;;;;;;;;22.19;57.55;99834.75;4281426;33;19993;-81
2022/07/06 04:52:39;;;;;;;;;;;;;;;22.14;58.18;99836.62;4278874;33;20075;-82
2022/07/06 04:55:08;;;;;;;;;;;;;;;22.28;57.31;99834.47;4305924;33;19997;-83
2022/07/06 04:57:35;;;;;;;;;;;;;;;22.25;57.34;99829.28;4280291;33;20393;-83
2022/07/06 05:00:03;;;;;;;;;;;;;;;22.05;57.59;99836.94;4274237;33;20542;-82
2022/07/06 05:02:30;;;;;;;;;;;;;;;22.22;57.55;99829.38;4256107;33;19999;-86
2022/07/06 05:04:58;;;;;;;;;;;;;;;22.29;57.06;99835.31;4255226;33;19989;-85
2022/07/06 05:07:28;;;;;;;;;;;;;;;22.40;56.56;99837.59;4267039;33;20335;-86
2022/07/06 05:09:56;;;;;;;;;;;;;;;22.46;56.77;99843.56;4263056;33;20048;-85
2022/07/06 05:12:23;;;;;;;;;;;;;;;21.99;58.80;99852.94;4262443;33;19977;-85
2022/07/06 05:14:50;;;;;;;;;;;;;;;22.43;57.05;99858.59;4265838;33;19986;-84
2022/07/06 05:17:17;;;;;;;;;;;;;;;22.47;56.51;99852.34;4268961;33;19997;-89
2022/07/06 05:19:45;;;;;;;;;;;;;;;22.72;55.84;99845.34;4281743;33;20341;-87
2022/07/06 05:22:11;;;;;;;;;;;;;;;22.56;56.55;99845.88;4297320;33;19988;-89
2022/07/06 05:24:38;;;;;;;;;;;;;;;22.44;57.07;99845.38;4282164;33;20001;-89
2022/07/06 05:27:05;;;;;;;;;;;;;;;22.54;56.96;99850.34;4291173;33;20351;-87
2022/07/06 05:29:32;;;;;;;;;;;;;;;22.77;56.17;99852.22;4293925;33;19984;-87
2022/07/06 05:32:00;;;;;;;;;;;;;;;22.77;56.25;99857.50;4285613;33;19985;-85
2022/07/06 05:34:28;;;;;;;;;;;;;;;22.86;55.71;99867.75;4287574;33;20312;-86
2022/07/06 05:36:55;;;;;;;;;;;;;;;22.65;57.02;99864.91;4320820;33;19995;-85
2022/07/06 05:39:23;;;;;;;;;;;;;;;22.82;56.31;99866.16;4340345;33;20021;-85
2022/07/06 05:41:50;;;;;;;;;;;;;;;22.96;55.23;99869.19;4341098;32;19980;-86
2022/07/06 05:44:18;;;;;;;;;;;;;;;22.73;55.83;99884.00;4341101;32;20038;-85
2022/07/06 05:46:44;;;;;;;;;;;;;;;22.47;57.10;99889.28;4341179;32;20340;-83
2022/07/06 05:51:58;;;;;;;;;;;;;;;22.99;54.77;99884.94;4334554;32;19994;-83
2022/07/06 05:54:26;;;;;;;;;;;;;;;22.71;55.93;99885.81;4341481;32;19979;-83
2022/07/06 05:56:53;;;;;;;;;;;;;;;22.64;56.07;99886.94;4338076;33;20002;-83
2022/07/06 05:59:21;;;;;;;;;;;;;;;22.12;57.67;99890.34;4340457;32;19998;-83
2022/07/06 06:01:50;;;;;;;;;;;;;;;22.65;55.81;99891.28;4340795;32;19990;-84
2022/07/06 06:04:18;;;;;;;;;;;;;;;22.59;56.62;99891.53;4337166;32;19991;-83
2022/07/06 06:06:45;;;;;;;;;;;;;;;22.39;57.61;99899.19;4338467;32;20058;-83
2022/07/06 06:09:14;;;;;;;;;;;;;;;22.70;56.20;99897.28;4286502;33;19981;-84
2022/07/06 06:11:41;;;;;;;;;;;;;;;23.00;55.33;99902.47;4284048;33;19985;-84
2022/07/06 06:14:07;;;;;;;;;;;;;;;23.12;54.94;99893.28;4283113;33;20029;-85
2022/07/06 06:16:35;;;;;;;;;;;;;;;22.91;57.04;99905.41;4283329;33;19988;-83
2022/07/06 06:19:02;;;;;;;;;;;;;;;23.32;56.01;99908.44;4281801;33;19984;-84
2022/07/06 06:21:29;;;;;;;;;;;;;;;23.39;55.88;99907.31;4284292;33;20027;-84
2022/07/06 06:23:56;;;;;;;;;;;;;;;23.81;54.23;99902.28;4296652;33;20000;-83
2022/07/06 06:26:23;;;;;;;;;;;;;;;24.33;52.64;99894.13;4296616;33;19999;-85
2022/07/06 06:28:50;;;;;;;;;;;;;;;24.62;52.03;99895.63;4296237;33;20047;-86
2022/07/06 06:31:17;;;;;;;;;;;;;;;24.85;50.99;99894.66;4289766;33;19997;-86
2022/07/06 06:33:44;;;;;;;;;;;;;;;25.18;49.73;99894.22;4283087;33;20029;-85
2022/07/06 06:36:11;;;;;;;;;;;;;;;25.13;50.53;99890.88;4296632;33;20004;-83
2022/07/06 06:38:37;;;;;;;;;;;;;;;25.47;49.58;99895.56;4295084;33;20024;-84
2022/07/06 06:41:05;;;;;;;;;;;;;;;25.72;48.50;99892.69;4299064;33;20005;-84
2022/07/06 06:43:31;;;;;;;;;;;;;;;25.79;48.77;99902.06;4281968;33;19978;-83
2022/07/06 06:45:59;;;;;;;;;;;;;;;26.17;47.33;99908.28;4290646;33;19988;-84
2022/07/06 06:48:26;;;;;;;;;;;;;;;26.16;46.74;99911.88;4282012;33;20032;-84
2022/07/06 06:50:53;;;;;;;;;;;;;;;26.42;46.01;99904.47;4288296;33;19995;-84
2022/07/06 06:53:20;;;;;;;;;;;;;;;26.41;47.18;99911.56;4296803;33;20004;-85
2022/07/06 06:55:47;;;;;;;;;;;;;;;26.77;45.22;99902.78;4291535;33;21159;-86
2022/07/06 06:58:13;;;;;;;;;;;;;;;26.98;45.64;99906.12;4282872;33;19993;-85
2022/07/06 07:00:40;;;;;;;;;;;;;;;27.18;44.98;99902.47;4282193;33;19980;-85
2022/07/06 07:03:07;;;;;;;;;;;;;;;27.35;44.17;99894.50;4292482;33;20032;-87
2022/07/06 07:05:34;;;;;;;;;;;;;;;27.48;43.85;99899.19;4292466;33;20067;-86
2022/07/06 07:08:01;;;;;;;;;;;;;;;27.69;43.18;99891.84;4293484;33;19989;-85
2022/07/06 07:10:31;;;;;;;;;;;;;;;27.72;43.33;99899.66;4289862;33;19980;-87
2022/07/06 07:12:58;;;;;;;;;;;;;;;27.94;42.25;99896.72;4292234;33;19989;-85
2022/07/06 07:15:25;;;;;;;;;;;;;;;27.97;42.50;99891.22;4282145;33;20050;-87
2022/07/06 07:17:53;;;;;;;;;;;;;;;28.14;42.54;99893.81;4287085;33;20065;-87
2022/07/06 07:20:20;;;;;;;;;;;;;;;28.01;44.91;99903.41;4281570;33;20738;-84
2022/07/06 07:22:47;;;;;;;;;;;;;;;28.56;41.77;99895.03;4291969;33;19992;-84
2022/07/06 07:25:14;;;;;;;;;;;;;;;28.83;40.53;99891.72;4283145;33;19977;-85
2022/07/06 07:27:40;;;;;;;;;;;;;;;28.86;42.17;99896.88;4288604;33;20001;-85
2022/07/06 07:30:08;;;;;;;;;;;;;;;29.06;40.00;99893.03;4281665;33;20028;-85
2022/07/06 07:32:35;;;;;;;;;;;;;;;29.09;40.98;99904.38;4283233;33;19985;-84
2022/07/06 07:35:02;;;;;;;;;;;;;;;29.47;38.83;99909.22;4295858;33;20007;-85
2022/07/06 07:37:29;;;;;;;;;;;;;;;29.10;40.94;99895.44;4339907;32;19984;-86
2022/07/06 07:39:56;;;;;;;;;;;;;;;29.57;39.65;99905.00;4337733;33;20034;-85
2022/07/06 07:42:23;;;;;;;;;;;;;;;29.52;39.33;99901.78;4338762;32;19980;-88
2022/07/06 07:44:49;;;;;;;;;;;;;;;29.69;39.52;99913.25;4337128;33;20557;-87
2022/07/06 07:47:16;;;;;;;;;;;;;;;30.18;37.98;99915.50;4334880;32;19999;-87
2022/07/06 07:49:43;;;;;;;;;;;;;;;30.00;38.17;99913.06;4295123;33;20008;-85
2022/07/06 07:52:12;;;;;;;;;;;;;;;30.03;38.21;99904.00;4276539;33;19989;-87
2022/07/06 07:54:39;;;;;;;;;;;;;;;30.17;38.55;99908.44;4279523;33;20001;-87
2022/07/06 07:57:13;;;;;;;;;;;;;;;30.25;38.29;99906.16;4286003;33;20012;-85
2022/07/06 07:59:42;;;;;;;;;;;;;;;30.62;37.51;99903.78;4295902;33;19984;-86
2022/07/06 08:02:08;;;;;;;;;;;;;;;30.64;37.52;99897.38;4295726;33;20040;-85
2022/07/06 08:04:36;;;;;;;;;;;;;;;30.80;36.47;99902.59;4295839;33;20048;-86
2022/07/06 08:07:03;;;;;;;;;;;;;;;30.70;38.80;99904.13;4291124;33;20025;-86
2022/07/06 08:09:29;;;;;;;;;;;;;;;30.67;38.25;99901.66;4286828;33;20003;-85
2022/07/06 08:11:56;;;;;;;;;;;;;;;30.84;36.24;99906.75;4281271;33;20314;-86
2022/07/06 08:14:23;;;;;;;;;;;;;;;31.25;35.16;99919.13;4273602;33;20033;-85
2022/07/06 08:16:50;;;;;;;;;;;;;;;31.50;34.69;99913.84;4342627;32;20004;-86
2022/07/06 08:19:17;;;;;;;;;;;;;;;31.26;34.63;99920.84;4294015;33;20024;-85
2022/07/06 08:21:44;;;;;;;;;;;;;;;31.09;34.63;99921.16;4296167;33;19992;-85
2022/07/06 08:24:11;;;;;;;;;;;;;;;31.16;35.07;99914.41;4294429;33;19988;-86
2022/07/06 08:26:38;;;;;;;;;;;;;;;31.42;34.11;99929.56;4290744;33;20803;-83
2022/07/06 08:29:05;;;;;;;;;;;;;;;31.55;33.64;99915.31;4297903;33;20266;-85
2022/07/06 08:31:33;;;;;;;;;;;;;;;31.15;36.36;99918.06;4296402;33;20003;-85
2022/07/06 08:34:21;;;;;;;;;;;;;;;31.55;34.21;99915.31;4285462;33;19988;-86
2022/07/06 08:36:48;;;;;;;;;;;;;;;31.42;34.92;99921.53;4289820;33;20395;-83
2022/07/06 08:39:14;;;;;;;;;;;;;;;31.26;35.34;99921.69;4278529;33;20089;-84
2022/07/06 08:41:43;;;;;;;;;;;;;;;31.52;34.86;99926.25;4281961;33;20095;-83
2022/07/06 08:44:09;;;;;;;;;;;;;;;31.58;34.78;99931.16;4278092;33;19993;-83
2022/07/06 08:46:39;;;;;;;;;;;;;;;31.53;34.06;99933.31;4273965;33;19995;-84
2022/07/06 08:49:07;;;;;;;;;;;;;;;31.50;34.23;99937.91;4269369;33;19973;-83
2022/07/06 08:51:34;;;;;;;;;;;;;;;31.59;34.42;99932.87;4269814;33;20032;-83
2022/07/06 08:54:04;;;;;;;;;;;;;;;31.74;33.83;99932.66;4329357;32;20410;-83
2022/07/06 08:56:32;;;;;;;;;;;;;;;31.55;35.02;99926.03;4349640;32;20004;-82
2022/07/06 08:58:59;;;;;;;;;;;;;;;31.62;34.55;99927.31;4332709;32;20345;-84
2022/07/06 09:01:26;;;;;;;;;;;;;;;31.46;34.93;99933.75;4336268;32;20035;-84
2022/07/06 09:03:54;;;;;;;;;;;;;;;31.70;33.62;99924.97;4342027;32;19987;-86
2022/07/06 09:06:24;;;;;;;;;;;;;;;31.48;33.05;99926.47;4301896;32;19988;-86
2022/07/06 09:08:52;;;;;;;;;;;;;;;31.36;34.23;99926.44;4297565;33;19989;-83
2022/07/06 09:11:21;;;;;;;;;;;;;;;31.60;34.71;99934.59;4297132;33;20032;-83
2022/07/06 09:13:48;;;;;;;;;;;;;;;31.38;35.33;99925.37;4297083;33;20060;-84
2022/07/06 09:16:15;;;;;;;;;;;;;;;31.58;34.27;99939.19;4297053;33;20003;-83
2022/07/06 09:19:02;;;;;;;;;;;;;;;31.61;33.33;99921.09;4289931;33;19999;-84
2022/07/06 09:21:31;;;;;;;;;;;;;;;31.79;32.25;99921.62;4342621;32;20042;-83
2022/07/06 09:23:59;;;;;;;;;;;;;;;31.84;33.57;99924.81;4353928;32;20006;-83
2022/07/06 09:26:26;;;;;;;;;;;;;;;31.91;32.02;99917.28;4356082;32;20368;-83
2022/07/06 09:28:54;;;;;;;;;;;;;;;31.91;32.13;99923.47;4355755;32;19991;-83
2022/07/06 09:31:21;;;;;;;;;;;;;;;32.20;29.78;99925.87;4357795;32;20045;-86
2022/07/06 09:33:58;;;;;;;;;;;;;;;32.13;30.47;99921.91;4358837;32;19979;-84
2022/07/06 09:36:40;;;;;;;;;;;;;;;31.86;30.94;99922.06;4356048;32;20340;-85
2022/07/06 09:39:34;;;;;;;;;;;;;;;31.62;31.99;99927.31;4348243;32;19991;-85
2022/07/06 09:42:03;;;;;;;;;;;;;;;31.80;32.19;99923.34;4356104;32;20011;-83
2022/07/06 09:44:31;;;;;;;;;;;;;;;31.77;33.38;99914.66;4354863;32;19987;-83
2022/07/06 09:46:58;;;;;;;;;;;;;;;31.63;31.00;99915.66;4364136;32;19988;-82
2022/07/06 09:49:25;;;;;;;;;;;;;;;31.76;30.31;99919.19;4354606;32;20014;-83
2022/07/06 09:51:54;;;;;;;;;;;;;;;32.01;30.77;99912.13;4355769;32;19995;-83
2022/07/06 09:54:21;;;;;;;;;;;;;;;32.03;30.83;99920.88;4356443;32;20030;-83
2022/07/06 09:56:51;;;;;;;;;;;;;;;31.89;31.17;99925.41;4355911;32;20377;-84
2022/07/06 09:59:21;;;;;;;;;;;;;;;31.35;33.57;99922.91;4321253;32;19980;-82
2022/07/06 10:01:50;;;;;;;;;;;;;;;31.16;31.53;99915.28;4311459;33;19988;-87
2022/07/06 10:04:18;;;;;;;;;;;;;;;31.66;31.68;99913.62;4311885;33;19984;-88
2022/07/06 10:06:45;;;;;;;;;;;;;;;31.35;32.98;99920.25;4338169;32;20668;-89
2022/07/06 10:09:12;;;;;;;;;;;;;;;31.39;31.33;99928.91;4340330;32;20015;-86
2022/07/06 10:11:50;;;;;;;;;;;;;;;31.27;33.72;99927.91;4344928;32;20031;-88
2022/07/06 10:14:18;;;;;;;;;;;;;;;31.92;28.43;99927.84;4341084;32;20042;-87
2022/07/06 10:16:45;;;;;;;;;;;;;;;31.73;29.16;99925.59;4351386;32;20304;-87
2022/07/06 10:19:13;;;;;;;;;;;;;;;31.60;31.35;99923.91;4341519;33;19983;-85
2022/07/06 10:21:40;;;;;;;;;;;;;;;31.80;32.25;99930.53;4344624;32;20003;-87
2022/07/06 10:24:08;;;;;;;;;;;;;;;32.12;26.24;99925.56;4341586;32;19998;-88
2022/07/06 10:26:35;;;;;;;;;;;;;;;32.34;26.18;99925.72;4354621;32;20007;-86
2022/07/06 10:29:03;;;;;;;;;;;;;;;32.54;25.32;99931.47;4355516;32;20529;-87
2022/07/06 10:31:30;;;;;;;;;;;;;;;32.14;25.46;99929.00;4355955;32;19980;-88
2022/07/06 10:33:58;;;;;;;;;;;;;;;31.93;30.12;99932.25;4350599;32;19987;-89
2022/07/06 10:36:25;;;;;;;;;;;;;;;32.15;28.59;99920.84;4322134;33;20373;-88
2022/07/06 10:38:52;;;;;;;;;;;;;;;32.61;25.53;99933.59;4309860;33;19988;-87
2022/07/06 10:41:30;;;;;;;;;;;;;;;32.62;24.67;99927.25;4311848;33;19992;-87
2022/07/06 10:43:58;;;;;;;;;;;;;;;32.54;25.47;99932.31;4294611;33;19988;-89
2022/07/06 10:46:27;;;;;;;;;;;;;;;32.56;25.16;99924.19;4311672;33;19996;-88
2022/07/06 10:48:55;;;;;;;;;;;;;;;32.66;25.21;99927.88;4322354;33;20390;-85
2022/07/06 10:51:22;;;;;;;;;;;;;;;32.72;24.72;99924.75;4310145;33;19986;-91
2022/07/06 10:54:04;;;;;;;;;;;;;;;32.91;22.91;99923.38;4282271;33;20024;-90
2022/07/06 10:56:32;;;;;;;;;;;;;;;32.71;23.37;99925.72;4317126;32;19999;-87
2022/07/06 10:59:09;;;;;;;;;;;;;;;32.76;24.50;99923.53;4326121;33;20339;-89
2022/07/06 11:01:36;;;;;;;;;;;;;;;32.57;25.48;99936.59;4326107;33;19976;-89
2022/07/06 11:04:03;;;;;;;;;;;;;;;32.87;23.94;99925.44;4333078;33;20325;-89
2022/07/06 11:06:35;;;;;;;;;;;;;;;32.59;23.62;99929.31;4340761;32;20412;-87
2022/07/06 11:09:06;;;;;;;;;;;;;;;32.25;25.16;99926.38;4341979;32;21338;-90
2022/07/06 11:11:33;;;;;;;;;;;;;;;32.46;24.42;99925.84;4332319;32;20041;-90
2022/07/06 11:14:11;;;;;;;;;;;;;;;32.55;23.62;99922.47;4340081;32;19992;-88
2022/07/06 11:16:47;;;;;;;;;;;;;;;32.24;24.24;99913.97;4339108;33;20043;-90
2022/07/06 11:19:15;;;;;;;;;;;;;;;32.76;23.48;99915.50;4314862;32;19976;-88
2022/07/06 11:21:56;;;;;;;;;;;;;;;32.57;23.51;99936.59;4319994;32;20039;-87
2022/07/06 11:24:29;;;;;;;;;;;;;;;32.58;22.86;99928.47;4320417;33;19990;-87
2022/07/06 11:26:57;;;;;;;;;;;;;;;32.28;23.21;99914.59;4312299;33;19984;-83
2022/07/06 11:29:25;;;;;;;;;;;;;;;32.38;24.56;99921.84;4327086;32;19999;-88
2022/07/06 11:31:53;;;;;;;;;;;;;;;32.61;23.32;99927.34;4318523;32;20392;-90
2022/07/06 11:34:22;;;;;;;;;;;;;;;32.61;23.85;99936.28;4317474;33;20452;-91
2022/07/06 11:36:53;;;;;;;;;;;;;;;32.59;23.62;99932.00;4344267;32;19991;-84
2022/07/06 11:39:21;;;;;;;;;;;;;;;32.35;23.19;99927.41;4348626;32;19976;-84
2022/07/06 11:41:57;;;;;;;;;;;;;;;32.32;22.73;99933.00;4335179;32;20046;-84
2022/07/06 11:44:25;;;;;;;;;;;;;;;32.57;20.55;99947.31;4332988;33;20017;-83
2022/07/06 11:46:52;;;;;;;;;;;;;;;32.65;22.44;99940.44;4334423;33;20009;-83
2022/07/06 11:49:19;;;;;;;;;;;;;;;32.41;23.66;99935.00;4333727;32;19995;-84
2022/07/06 11:51:46;;;;;;;;;;;;;;;32.36;22.43;99929.16;4332239;32;20039;-87
2022/07/06 11:54:12;;;;;;;;;;;;;;;32.71;22.64;99949.84;4309224;32;784595;-86
2022/07/06 11:56:49;;;;;;;;;;;;;;;32.74;21.28;99941.56;4335283;33;19998;-84
2022/07/06 11:59:16;;;;;;;;;;;;;;;32.93;20.27;99948.22;4299381;32;19988;-83
2022/07/06 12:01:44;;;;;;;;;;;;;;;32.66;20.41;99941.28;4293638;33;20007;-86
2022/07/06 12:04:11;;;;;;;;;;;;;;;32.67;20.97;99959.06;4276304;33;19985;-86
2022/07/06 12:06:38;;;;;;;;;;;;;;;32.66;20.65;99943.97;4273292;33;20390;-86
2022/07/06 12:09:09;;;;;;;;;;;;;;;32.57;22.24;99942.81;4274792;33;19985;-88
2022/07/06 12:11:36;;;;;;;;;;;;;;;32.41;22.03;99937.69;4285988;33;20044;-87
2022/07/06 12:14:13;;;;;;;;;;;;;;;32.57;22.71;99941.97;4285446;33;20418;-85
2022/07/06 12:16:40;;;;;;;;;;;;;;;32.50;22.21;99960.31;4275154;33;19980;-86
2022/07/06 12:19:08;;;;;;;;;;;;;;;32.51;21.79;99947.78;4284202;33;20518;-86
2022/07/06 12:21:35;;;;;;;;;;;;;;;32.60;21.73;99953.31;4272794;33;19996;-85
2022/07/06 12:24:06;;;;;;;;;;;;;;;32.57;21.87;99936.59;4305855;32;20286;-87
2022/07/06 12:26:38;;;;;;;;;;;;;;;32.58;22.49;99943.66;4352107;32;19999;-86
2022/07/06 12:29:09;;;;;;;;;;;;;;;32.66;22.53;99941.28;4347536;32;20387;-87
2022/07/06 12:31:40;;;;;;;;;;;;;;;32.44;22.24;99946.50;4351337;32;20753;-84
2022/07/06 12:34:15;;;;;;;;;;;;;;;32.49;22.67;99944.38;4349145;32;19975;-88
2022/07/06 12:36:45;;;;;;;;;;;;;;;32.19;22.29;99937.53;4331640;32;20012;-85
2022/07/06 12:39:13;;;;;;;;;;;;;;;32.20;23.74;99944.62;4322983;33;20050;-86
2022/07/06 12:41:44;;;;;;;;;;;;;;;32.54;22.76;99936.81;4312002;32;20000;-87
2022/07/06 12:44:11;;;;;;;;;;;;;;;32.60;22.58;99936.38;4329866;33;20011;-86
2022/07/06 12:46:39;;;;;;;;;;;;;;;32.33;24.62;99939.25;4323237;33;19988;-87
2022/07/06 12:49:13;;;;;;;;;;;;;;;32.23;22.52;99939.06;4326804;33;19972;-86
2022/07/06 12:51:49;;;;;;;;;;;;;;;32.49;22.02;99949.72;4336959;33;19988;-84
2022/07/06 12:54:16;;;;;;;;;;;;;;;32.21;22.83;99924.91;4326447;33;19988;-87
2022/07/06 12:57:19;;;;;;;;;;;;;;;32.30;22.34;99934.94;4324769;32;20463;-85